Padroni, Colorado
Current Conditions -  °F | °C
As of 2:53 AM on Friday 31 Oct 2014 (Local Time) from KSNY Reporting Station
Clear Clear  
Wind Chill: 19°   Ceiling: Unl
Heat Index: 26°   Visibility: 10mi
Dew Point: 24°   Wind: 6mph
Humidity: 92%   Direction: 140°SE
Pressure: 30.44"   Gusts: NA
Location:  40.78°N, 103.17°W
Report Text: KSNY 310853Z AUTO 14005KT 10SM CLR M03/M04 A3044 RMK AO2 SLP311 T10331044 58001
Loading
Personal Weather Stations






























Interactive Weather Map
Tropical Storm Tracking
New forecast layout! Learn more

10-Day Weather Forecast

Advertisements
Track Severe Weather on mobile